Radiosonde details



Informationen :

Serial : D26013308
Type : Graw DFM
Frequency : 403.210MHz
Launchsite : -
Nearest town : Jackpot, US (37.5km)

Altitude (Max) : 34332m at 2026-09-06 00:44:53
Speed (Max) : 167km/h at altitude 12259m

Average speed : 44km/h
Average ascent rate : 5m/s
Average descent rate : -17m/s
Ascent rate (Max) : 11.2m/s
Descent rate (Max): -32.1m/s

First frame :
KE7DJD at 2026-09-05 23:46:37 at altitude 15254m (OG: 13420m)
Last frame :
KE7DJD at 2026-09-06 01:12:10 at altitude 7022m (OG: 5062m)

Flighttime : 1h25m33s
Ascent time : 58m16s
Descent time : 27m17s
Uptime : -
Killtimer : -

Distance (Straight line distance): 38km

Distance (Route):


Frames : 242


Measurement :

Temperature : -15.5°C
Humidity : 0%
Pressure : 0hPa


Vertical profile (SkewT) :


Elevation profile :



Receiving stations :


Receiver Frames First received Last received
KE7DJD 242 2026-09-05 23:46:37 2026-09-06 01:12:10

Share per receiver :



All frames :


Receiver Date Latitude Longitude Direction Speed Altitude Climb Temperature Humidity Pressure Voltage Killtimer Uptime BKT XDATA
KE7DJD2026-09-06 01:12:1041.70334-114.9269537°82km/h7022m-7.8m/s-15.5°C0%0hPa0V00:00:0000:00:0000:00:00
KE7DJD2026-09-06 01:11:3841.69745-114.9318231°97km/h7259m-8.0m/s-15.6°C0%0hPa0V00:00:0000:00:0000:00:00
KE7DJD2026-09-06 01:11:1741.69267-114.9353729°100km/h7431m-7.6m/s-16.4°C0%0hPa0V00:00:0000:00:0000:00:00
KE7DJD2026-09-06 01:10:5641.68785-114.9387530°104km/h7589m-7.9m/s-17.4°C0%0hPa0V00:00:0000:00:0000:00:00
KE7DJD2026-09-06 01:10:3441.68276-114.9425631°106km/h7758m-7.4m/s-19.0°C0%0hPa0V00:00:0000:00:0000:00:00
KE7DJD2026-09-06 01:10:1341.67828-114.9462934°102km/h7915m-8.0m/s-20.0°C0%0hPa0V00:00:0000:00:0000:00:00
KE7DJD2026-09-06 01:09:5341.67353-114.9505036°110km/h8086m-8.2m/s-20.9°C0%0hPa0V00:00:0000:00:0000:00:00
KE7DJD2026-09-06 01:09:3341.66896-114.9549437°115km/h8256m-8.8m/s-22.1°C0%0hPa0V00:00:0000:00:0000:00:00
KE7DJD2026-09-06 01:09:1241.66390-114.9596636°117km/h8441m-8.9m/s-23.4°C0%0hPa0V00:00:0000:00:0000:00:00
KE7DJD2026-09-06 01:08:5141.65899-114.9641935°120km/h8618m-9.0m/s-24.9°C0%0hPa0V00:00:0000:00:0000:00:00
KE7DJD2026-09-06 01:08:3141.65375-114.9692337°120km/h8807m-9.3m/s-26.4°C0%0hPa0V00:00:0000:00:0000:00:00
KE7DJD2026-09-06 01:08:1041.64894-114.9742840°120km/h9001m-9.7m/s-28.0°C0%0hPa0V00:00:0000:00:0000:00:00
KE7DJD2026-09-06 01:07:5041.64382-114.9796038°124km/h9211m-9.9m/s-29.7°C0%0hPa0V00:00:0000:00:0000:00:00
KE7DJD2026-09-06 01:07:2941.63880-114.9847538°130km/h9409m-10.3m/s-31.1°C0%0hPa0V00:00:0000:00:0000:00:00
KE7DJD2026-09-06 01:07:0941.63314-114.9900135°130km/h9628m-10.8m/s-32.8°C0%0hPa0V00:00:0000:00:0000:00:00
KE7DJD2026-09-06 01:06:4841.62764-114.9950938°137km/h9831m-10.6m/s-34.3°C0%0hPa0V00:00:0000:00:0000:00:00
KE7DJD2026-09-06 01:06:2841.62168-115.0010039°142km/h10039m-10.6m/s-35.9°C0%0hPa0V00:00:0000:00:0000:00:00
KE7DJD2026-09-06 01:06:0641.61549-115.0072938°148km/h10253m-10.1m/s-37.5°C0%0hPa0V00:00:0000:00:0000:00:00
KE7DJD2026-09-06 01:05:4641.60945-115.0133739°151km/h10454m-9.6m/s-38.9°C0%0hPa0V00:00:0000:00:0000:00:00
KE7DJD2026-09-06 01:05:2541.60299-115.0202340°157km/h10664m-9.7m/s-40.3°C0%0hPa0V00:00:0000:00:0000:00:00
KE7DJD2026-09-06 01:05:0541.59663-115.0267637°162km/h10873m-10.6m/s-41.8°C0%0hPa0V00:00:0000:00:0000:00:00
KE7DJD2026-09-06 01:04:4541.58968-115.0340139°162km/h11087m-10.0m/s-42.8°C0%0hPa0V00:00:0000:00:0000:00:00
KE7DJD2026-09-06 01:04:2441.58341-115.0406240°157km/h11289m-10.4m/s-44.1°C0%0hPa0V00:00:0000:00:0000:00:00
KE7DJD2026-09-06 01:04:0441.57710-115.0476041°153km/h11520m-11.1m/s-44.5°C0%0hPa0V00:00:0000:00:0000:00:00
KE7DJD2026-09-06 01:03:4341.57129-115.0544745°153km/h11747m-11.4m/s-45.3°C0%0hPa0V00:00:0000:00:0000:00:00
KE7DJD2026-09-06 01:03:2341.56556-115.0620644°148km/h11996m-12.2m/s-46.2°C0%0hPa0V00:00:0000:00:0000:00:00
KE7DJD2026-09-06 01:03:0241.55980-115.0694945°164km/h12259m-12.6m/s-46.8°C0%0hPa0V00:00:0000:00:0000:00:00
KE7DJD2026-09-06 01:02:4241.55361-115.0767744°161km/h12516m-12.8m/s-45.1°C0%0hPa0V00:00:0000:00:0000:00:00
KE7DJD2026-09-06 01:02:2141.54808-115.0842249°148km/h12780m-13.6m/s-44.2°C0%0hPa0V00:00:0000:00:0000:00:00
KE7DJD2026-09-06 01:02:0141.54299-115.0916749°133km/h13062m-13.6m/s-44.7°C0%0hPa0V00:00:0000:00:0000:00:00
KE7DJD2026-09-06 01:01:4041.53891-115.0978749°111km/h13323m-14.1m/s-45.3°C0%0hPa0V00:00:0000:00:0000:00:00
KE7DJD2026-09-06 01:01:2041.53503-115.1038252°106km/h13613m-13.3m/s-45.8°C0%0hPa0V00:00:0000:00:0000:00:00
KE7DJD2026-09-06 01:00:5941.53155-115.1090947°108km/h13884m-13.3m/s-46.4°C0%0hPa0V00:00:0000:00:0000:00:00
KE7DJD2026-09-06 01:00:1841.52459-115.1187345°78km/h14468m-14.2m/s-46.7°C0%0hPa0V00:00:0000:00:0000:00:00
KE7DJD2026-09-06 00:59:5741.52144-115.1221837°89km/h14748m-14.1m/s-47.8°C0%0hPa0V00:00:0000:00:0000:00:00
KE7DJD2026-09-06 00:59:3741.51737-115.1261038°95km/h15042m-14.0m/s-48.1°C0%0hPa0V00:00:0000:00:0000:00:00
KE7DJD2026-09-06 00:59:1741.51384-115.1294137°78km/h15320m-14.8m/s-49.2°C0%0hPa0V00:00:0000:00:0000:00:00
KE7DJD2026-09-06 00:58:5641.51067-115.1327244°77km/h15622m-14.9m/s-49.9°C0%0hPa0V00:00:0000:00:0000:00:00
KE7DJD2026-09-06 00:58:3541.50780-115.1358538°77km/h15917m-14.5m/s-50.7°C0%0hPa0V00:00:0000:00:0000:00:00
KE7DJD2026-09-06 00:58:1541.50543-115.1390151°40km/h16237m-16.1m/s-49.4°C0%0hPa0V00:00:0000:00:0000:00:00
KE7DJD2026-09-06 00:57:5441.50398-115.1403317°35km/h16558m-15.8m/s-51.0°C0%0hPa0V00:00:0000:00:0000:00:00
KE7DJD2026-09-06 00:57:3441.50175-115.1409523°49km/h16892m-15.7m/s-51.7°C0%0hPa0V00:00:0000:00:0000:00:00
KE7DJD2026-09-06 00:57:1341.49916-115.1429034°64km/h17218m-16.4m/s-52.5°C0%0hPa0V00:00:0000:00:0000:00:00
KE7DJD2026-09-06 00:56:5341.49634-115.1450132°68km/h17581m-17.3m/s-54.6°C0%0hPa0V00:00:0000:00:0000:00:00
KE7DJD2026-09-06 00:56:3241.49396-115.1477557°57km/h17930m-18.2m/s-50.9°C0%0hPa0V00:00:0000:00:0000:00:00
KE7DJD2026-09-06 00:56:1241.49279-115.1499852°22km/h18311m-18.8m/s-51.6°C0%0hPa0V00:00:0000:00:0000:00:00
KE7DJD2026-09-06 00:55:5141.49187-115.1510646°24km/h18709m-19.8m/s-51.4°C0%0hPa0V00:00:0000:00:0000:00:00
KE7DJD2026-09-06 00:55:3041.49135-115.1514313°9km/h19096m-20.6m/s-49.5°C0%0hPa0V00:00:0000:00:0000:00:00
KE7DJD2026-09-06 00:55:1041.49072-115.15136330°11km/h19522m-21.0m/s-51.1°C0%0hPa0V00:00:0000:00:0000:00:00
KE7DJD2026-09-06 00:54:4941.49043-115.1513758°9km/h19935m-21.3m/s-51.2°C0%0hPa0V00:00:0000:00:0000:00:00
KE7DJD2026-09-06 00:54:2941.49065-115.15140300°4km/h20392m-22.1m/s-49.2°C0%0hPa0V00:00:0000:00:0000:00:00
KE7DJD2026-09-06 00:54:0841.48995-115.1509615°16km/h20839m-22.8m/s-49.7°C0%0hPa0V00:00:0000:00:0000:00:00
KE7DJD2026-09-06 00:53:4841.48980-115.15079263°16km/h21321m-23.2m/s-49.6°C0%0hPa0V00:00:0000:00:0000:00:00
KE7DJD2026-09-06 00:53:2841.48979-115.14985190°7km/h21797m-23.5m/s-49.4°C0%0hPa0V00:00:0000:00:0000:00:00
KE7DJD2026-09-06 00:53:0741.48972-115.14876258°13km/h22320m-25.5m/s-48.9°C0%0hPa0V00:00:0000:00:0000:00:00
KE7DJD2026-09-06 00:52:4641.48970-115.14769269°16km/h22854m-25.9m/s-47.6°C0%0hPa0V00:00:0000:00:0000:00:00
KE7DJD2026-09-06 00:52:0541.48938-115.14634266°24km/h23932m-27.4m/s-47.8°C0%0hPa0V00:00:0000:00:0000:00:00
KE7DJD2026-09-06 00:51:4541.48889-115.14535142°2km/h24532m-29.8m/s-46.0°C0%0hPa0V00:00:0000:00:0000:00:00
KE7DJD2026-09-06 00:51:2441.48951-115.14488213°27km/h25116m-30.6m/s-43.6°C0%0hPa0V00:00:0000:00:0000:00:00
KE7DJD2026-09-06 00:51:0441.49039-115.14417199°20km/h25767m-31.8m/s-43.9°C0%0hPa0V00:00:0000:00:0000:00:00
KE7DJD2026-09-06 00:50:4441.49117-115.14309269°37km/h26409m-32.1m/s-43.0°C0%0hPa0V00:00:0000:00:0000:00:00
KE7DJD2026-09-06 00:50:2341.49099-115.14188316°16km/h27099m-31.7m/s-41.9°C0%0hPa0V00:00:0000:00:0000:00:00
KE7DJD2026-09-06 00:50:0141.49037-115.1418863°11km/h27612m-14.5m/s-40.3°C0%0hPa0V00:00:0000:00:0000:00:00
KE7DJD2026-09-06 00:49:4141.49039-115.14246164°4km/h27993m-19.7m/s-38.7°C0%0hPa0V00:00:0000:00:0000:00:00
KE7DJD2026-09-06 00:49:2141.49086-115.14303176°11km/h28370m-22.0m/s-37.9°C0%0hPa0V00:00:0000:00:0000:00:00
KE7DJD2026-09-06 00:49:0041.49123-115.143240km/h28739m-21.3m/s-38.6°C0%0hPa0V00:00:0000:00:0000:00:00
KE7DJD2026-09-06 00:48:4041.49115-115.14348185°5km/h29172m-16.9m/s-39.0°C0%0hPa0V00:00:0000:00:0000:00:00
KE7DJD2026-09-06 00:48:1941.49085-115.1429018km/h29593m-21.8m/s-37.2°C0%0hPa0V00:00:0000:00:0000:00:00
KE7DJD2026-09-06 00:47:5941.49009-115.1427318km/h30039m-26.6m/s-35.9°C0%0hPa0V00:00:0000:00:0000:00:00
KE7DJD2026-09-06 00:47:3941.48940-115.14330353°18km/h30497m-22.2m/s-35.4°C0%0hPa0V00:00:0000:00:0000:00:00
KE7DJD2026-09-06 00:47:1841.48952-115.14351160°16km/h30955m-23.1m/s-36.1°C0%0hPa0V00:00:0000:00:0000:00:00
KE7DJD2026-09-06 00:46:5741.48986-115.1437399°13km/h31400m-17.0m/s-36.4°C0%0hPa0V00:00:0000:00:0000:00:00
KE7DJD2026-09-06 00:46:3741.49051-115.14364220°22km/h31879m-28.4m/s-36.5°C0%0hPa0V00:00:0000:00:0000:00:00
KE7DJD2026-09-06 00:46:1641.49153-115.14291182°22km/h32374m-23.8m/s-35.3°C0%0hPa0V00:00:0000:00:0000:00:00
KE7DJD2026-09-06 00:45:5441.49223-115.14280196°9km/h32866m-29.4m/s-32.9°C0%0hPa0V00:00:0000:00:0000:00:00
KE7DJD2026-09-06 00:45:3541.49277-115.142270km/h33409m-22.8m/s-31.6°C0%0hPa0V00:00:0000:00:0000:00:00
KE7DJD2026-09-06 00:45:1341.49272-115.14142268°24km/h33916m-24.2m/s-29.0°C0%0hPa0V00:00:0000:00:0000:00:00
KE7DJD2026-09-06 00:44:5341.49208-115.14146339°31km/h34332m4.5m/s-28.7°C0%0hPa0V00:00:0000:00:0000:00:00
KE7DJD2026-09-06 00:44:3241.49157-115.14186351°46km/h34214m5.8m/s-29.5°C0%0hPa0V00:00:0000:00:0000:00:00
KE7DJD2026-09-06 00:44:1241.49107-115.14181339°18km/h34100m5.4m/s-29.2°C0%0hPa0V00:00:0000:00:0000:00:00
KE7DJD2026-09-06 00:43:5141.49048-115.14105296°66km/h33994m5.8m/s-29.4°C0%0hPa0V00:00:0000:00:0000:00:00
KE7DJD2026-09-06 00:43:2841.48992-115.13986203°33km/h33868m1.2m/s-30.0°C0%0hPa0V00:00:0000:00:0000:00:00
KE7DJD2026-09-06 00:43:0641.48966-115.13856313°49km/h33756m-0.0m/s-31.1°C0%0hPa0V00:00:0000:00:0000:00:00
KE7DJD2026-09-06 00:42:4541.48980-115.13827204°62km/h33640m3.0m/s-32.4°C0%0hPa0V00:00:0000:00:0000:00:00
KE7DJD2026-09-06 00:42:2341.48999-115.13737121°44km/h33514m3.1m/s-32.8°C0%0hPa0V00:00:0000:00:0000:00:00
KE7DJD2026-09-06 00:42:0341.49058-115.13702276°57km/h33396m5.6m/s-33.3°C0%0hPa0V00:00:0000:00:0000:00:00
KE7DJD2026-09-06 00:41:4241.49056-115.13678120°40km/h33284m7.3m/s-33.4°C0%0hPa0V00:00:0000:00:0000:00:00
KE7DJD2026-09-06 00:41:2241.49123-115.13647194°38km/h33144m2.5m/s-33.3°C0%0hPa0V00:00:0000:00:0000:00:00
KE7DJD2026-09-06 00:41:0241.49193-115.13513277°49km/h33044m1.5m/s-33.5°C0%0hPa0V00:00:0000:00:0000:00:00
KE7DJD2026-09-06 00:40:4241.49230-115.1349581°33km/h32932m9.0m/s-33.2°C0%0hPa0V00:00:0000:00:0000:00:00
KE7DJD2026-09-06 00:40:2041.49298-115.13500291°44km/h32801m11.2m/s-33.8°C0%0hPa0V00:00:0000:00:0000:00:00
KE7DJD2026-09-06 00:39:5941.49310-115.13462125°24km/h32682m9.0m/s-34.6°C0%0hPa0V00:00:0000:00:0000:00:00
KE7DJD2026-09-06 00:39:3841.49390-115.13450260°29km/h32556m3.6m/s-34.7°C0%0hPa0V00:00:0000:00:0000:00:00
KE7DJD2026-09-06 00:39:1441.49439-115.13500219°46km/h32411m9.9m/s-34.6°C0%0hPa0V00:00:0000:00:0000:00:00
KE7DJD2026-09-06 00:38:5341.49510-115.13509113°55km/h32265m2.8m/s-35.0°C0%0hPa0V00:00:0000:00:0000:00:00
KE7DJD2026-09-06 00:38:3241.49556-115.13534166°31km/h32152m4.2m/s-35.6°C0%0hPa0V00:00:0000:00:0000:00:00
KE7DJD2026-09-06 00:38:1241.49641-115.13436268°40km/h32015m1.5m/s-35.8°C0%0hPa0V00:00:0000:00:0000:00:00
KE7DJD2026-09-06 00:37:5141.49764-115.13319156°51km/h31885m2.0m/s-35.4°C0%0hPa0V00:00:0000:00:0000:00:00
KE7DJD2026-09-06 00:37:3141.49868-115.13264283°26km/h31763m9.5m/s-34.8°C0%0hPa0V00:00:0000:00:0000:00:00
KE7DJD2026-09-06 00:37:1041.49943-115.13257151°53km/h31628m8.8m/s-34.3°C0%0hPa0V00:00:0000:00:0000:00:00
KE7DJD2026-09-06 00:36:5041.50025-115.13287186°47km/h31516m-0.0m/s-34.1°C0%0hPa0V00:00:0000:00:0000:00:00
KE7DJD2026-09-06 00:36:2841.50041-115.1333261°27km/h31391m3.6m/s-34.4°C0%0hPa0V00:00:0000:00:0000:00:00
KE7DJD2026-09-06 00:36:0641.50070-115.13377272°22km/h31273m3.5m/s-34.7°C0%0hPa0V00:00:0000:00:0000:00:00
KE7DJD2026-09-06 00:35:4541.50056-115.1338589°24km/h31150m3.0m/s-35.1°C0%0hPa0V00:00:0000:00:0000:00:00
KE7DJD2026-09-06 00:35:2541.50118-115.13386193°20km/h31033m3.7m/s-34.9°C0%0hPa0V00:00:0000:00:0000:00:00
KE7DJD2026-09-06 00:35:0541.50174-115.1342761°15km/h30915m1.2m/s-34.7°C0%0hPa0V00:00:0000:00:0000:00:00
KE7DJD2026-09-06 00:34:4441.50274-115.13416175°44km/h30796m2.2m/s-35.0°C0%0hPa0V00:00:0000:00:0000:00:00
KE7DJD2026-09-06 00:34:2241.50312-115.13417270°20km/h30670m6.7m/s-35.3°C0%0hPa0V00:00:0000:00:0000:00:00
KE7DJD2026-09-06 00:34:0241.50344-115.13406196°35km/h30549m2.6m/s-35.3°C0%0hPa0V00:00:0000:00:0000:00:00
KE7DJD2026-09-06 00:33:4141.50334-115.1341022°37km/h30431m0.2m/s-36.2°C0%0hPa0V00:00:0000:00:0000:00:00
KE7DJD2026-09-06 00:33:2041.50294-115.1344735°5km/h30307m3.0m/s-36.9°C0%0hPa0V00:00:0000:00:0000:00:00
KE7DJD2026-09-06 00:32:5841.50204-115.1345017°9km/h30183m8.1m/s-36.9°C0%0hPa0V00:00:0000:00:0000:00:00
KE7DJD2026-09-06 00:32:3841.50189-115.13379273°33km/h30055m5.1m/s-36.7°C0%0hPa0V00:00:0000:00:0000:00:00
KE7DJD2026-09-06 00:32:1541.50140-115.13283231°44km/h29922m8.8m/s-37.4°C0%0hPa0V00:00:0000:00:0000:00:00
KE7DJD2026-09-06 00:31:5241.50069-115.13264359°38km/h29781m3.8m/s-38.2°C0%0hPa0V00:00:0000:00:0000:00:00
KE7DJD2026-09-06 00:31:3141.49982-115.13206338°18km/h29645m8.4m/s-38.7°C0%0hPa0V00:00:0000:00:0000:00:00
KE7DJD2026-09-06 00:31:1041.49897-115.13161303°16km/h29516m8.6m/s-38.6°C0%0hPa0V00:00:0000:00:0000:00:00
KE7DJD2026-09-06 00:30:4841.49926-115.13087205°22km/h29377m8.7m/s-39.6°C0%0hPa0V00:00:0000:00:0000:00:00
KE7DJD2026-09-06 00:30:2241.50007-115.13061232°51km/h29220m1.8m/s-39.3°C0%0hPa0V00:00:0000:00:0000:00:00
KE7DJD2026-09-06 00:30:0041.50053-115.13084230°5km/h29089m7.2m/s-38.9°C0%0hPa0V00:00:0000:00:0000:00:00
KE7DJD2026-09-06 00:29:3941.50068-115.1310774°5km/h28970m5.4m/s-38.2°C0%0hPa0V00:00:0000:00:0000:00:00
KE7DJD2026-09-06 00:29:1941.50060-115.1322664°5km/h28847m8.7m/s-38.2°C0%0hPa0V00:00:0000:00:0000:00:00
KE7DJD2026-09-06 00:28:5841.50012-115.1326859°5km/h28726m7.2m/s-38.1°C0%0hPa0V00:00:0000:00:0000:00:00
KE7DJD2026-09-06 00:28:3841.49999-115.13307247°20km/h28598m8.2m/s-38.2°C0%0hPa0V00:00:0000:00:0000:00:00
KE7DJD2026-09-06 00:28:1741.50045-115.1330285°20km/h28469m3.8m/s-37.7°C0%0hPa0V00:00:0000:00:0000:00:00
KE7DJD2026-09-06 00:27:5541.50068-115.13303161°16km/h28342m5.9m/s-37.8°C0%0hPa0V00:00:0000:00:0000:00:00
KE7DJD2026-09-06 00:27:3441.50072-115.13347238°15km/h28212m7.5m/s-38.5°C0%0hPa0V00:00:0000:00:0000:00:00
KE7DJD2026-09-06 00:27:1441.50073-115.1336765°22km/h28082m4.8m/s-39.6°C0%0hPa0V00:00:0000:00:0000:00:00
KE7DJD2026-09-06 00:26:5341.50079-115.1339288°16km/h27960m7.9m/s-41.0°C0%0hPa0V00:00:0000:00:0000:00:00
KE7DJD2026-09-06 00:26:3141.50036-115.1341255°4km/h27828m6.7m/s-41.3°C0%0hPa0V00:00:0000:00:0000:00:00
KE7DJD2026-09-06 00:26:1041.49991-115.13446301°13km/h27699m7.5m/s-41.6°C0%0hPa0V00:00:0000:00:0000:00:00
KE7DJD2026-09-06 00:25:5041.49930-115.1346226°24km/h27576m2.8m/s-41.8°C0%0hPa0V00:00:0000:00:0000:00:00
KE7DJD2026-09-06 00:25:3241.49827-115.1338115km/h27450m5.7m/s-42.9°C0%0hPa0V00:00:0000:00:0000:00:00
KE7DJD2026-09-06 00:25:0841.49731-115.13277289°51km/h27338m5.2m/s-43.0°C0%0hPa0V00:00:0000:00:0000:00:00
KE7DJD2026-09-06 00:24:4841.49709-115.13200257°4km/h27224m3.7m/s-42.6°C0%0hPa0V00:00:0000:00:0000:00:00
KE7DJD2026-09-06 00:24:2841.49687-115.1312060°4km/h27103m7.7m/s-42.5°C0%0hPa0V00:00:0000:00:0000:00:00
KE7DJD2026-09-06 00:24:0741.49675-115.13033247°35km/h26979m4.9m/s-43.5°C0%0hPa0V00:00:0000:00:0000:00:00
KE7DJD2026-09-06 00:23:4641.49695-115.12966219°7km/h26855m6.9m/s-43.0°C0%0hPa0V00:00:0000:00:0000:00:00
KE7DJD2026-09-06 00:23:2541.49735-115.12898279°13km/h26734m6.5m/s-42.6°C0%0hPa0V00:00:0000:00:0000:00:00
KE7DJD2026-09-06 00:23:0541.49765-115.12762294°15km/h26615m6.1m/s-42.5°C0%0hPa0V00:00:0000:00:0000:00:00
KE7DJD2026-09-06 00:22:4441.49801-115.12577283°37km/h26492m2.5m/s-42.3°C0%0hPa0V00:00:0000:00:0000:00:00
KE7DJD2026-09-06 00:22:2441.49865-115.12324271°31km/h26377m8.1m/s-42.2°C0%0hPa0V00:00:0000:00:0000:00:00
KE7DJD2026-09-06 00:22:0441.49973-115.12152207°26km/h26258m7.1m/s-42.2°C0%0hPa0V00:00:0000:00:0000:00:00
KE7DJD2026-09-06 00:21:4341.50072-115.12086181°31km/h26147m2.0m/s-43.2°C0%0hPa0V00:00:0000:00:0000:00:00
KE7DJD2026-09-06 00:21:2341.50130-115.12021221°29km/h26034m6.9m/s-43.4°C0%0hPa0V00:00:0000:00:0000:00:00
KE7DJD2026-09-06 00:21:0241.50229-115.11912221°27km/h25923m6.2m/s-43.9°C0%0hPa0V00:00:0000:00:0000:00:00
KE7DJD2026-09-06 00:20:4241.50332-115.11836137°9km/h25805m3.1m/s-43.8°C0%0hPa0V00:00:0000:00:0000:00:00
KE7DJD2026-09-06 00:20:2141.50401-115.117857km/h25685m4.8m/s-44.0°C0%0hPa0V00:00:0000:00:0000:00:00
KE7DJD2026-09-06 00:20:0141.50425-115.11710299°20km/h25574m6.5m/s-44.0°C0%0hPa0V00:00:0000:00:0000:00:00
KE7DJD2026-09-06 00:19:4041.50464-115.11629221°15km/h25463m7.0m/s-44.2°C0%0hPa0V00:00:0000:00:0000:00:00
KE7DJD2026-09-06 00:19:2041.50572-115.11530212°35km/h25347m5.3m/s-44.2°C0%0hPa0V00:00:0000:00:0000:00:00
KE7DJD2026-09-06 00:18:5941.50684-115.11440237°38km/h25234m3.8m/s-44.1°C0%0hPa0V00:00:0000:00:0000:00:00
KE7DJD2026-09-06 00:18:3941.50748-115.11356230°26km/h25118m3.1m/s-44.1°C0%0hPa0V00:00:0000:00:0000:00:00
KE7DJD2026-09-06 00:18:1741.50777-115.11278216°44km/h25005m5.0m/s-44.3°C0%0hPa0V00:00:0000:00:0000:00:00
KE7DJD2026-09-06 00:17:5741.50867-115.11241199°13km/h24900m7.2m/s-44.6°C0%0hPa0V00:00:0000:00:0000:00:00
KE7DJD2026-09-06 00:17:3641.50914-115.11242343°4km/h24785m5.8m/s-46.0°C0%0hPa0V00:00:0000:00:0000:00:00
KE7DJD2026-09-06 00:17:1641.50932-115.1128230°5km/h24681m2.0m/s-46.3°C0%0hPa0V00:00:0000:00:0000:00:00
KE7DJD2026-09-06 00:16:5641.50943-115.1134190°11km/h24571m5.8m/s-46.1°C0%0hPa0V00:00:0000:00:0000:00:00
KE7DJD2026-09-06 00:16:3541.50933-115.11349302°33km/h24462m5.5m/s-46.1°C0%0hPa0V00:00:0000:00:0000:00:00
KE7DJD2026-09-06 00:16:1541.50902-115.11292298°9km/h24347m5.9m/s-46.9°C0%0hPa0V00:00:0000:00:0000:00:00
KE7DJD2026-09-06 00:15:5441.50844-115.11226348°16km/h24243m7.4m/s-47.7°C0%0hPa0V00:00:0000:00:0000:00:00
KE7DJD2026-09-06 00:15:3441.50800-115.11036284°42km/h24130m4.3m/s-47.8°C0%0hPa0V00:00:0000:00:0000:00:00
KE7DJD2026-09-06 00:15:1341.50805-115.10860211°16km/h24017m8.0m/s-48.0°C0%0hPa0V00:00:0000:00:0000:00:00
KE7DJD2026-09-06 00:14:5341.50857-115.10769207°24km/h23901m7.4m/s-48.2°C0%0hPa0V00:00:0000:00:0000:00:00
KE7DJD2026-09-06 00:14:3141.50900-115.10715271°15km/h23783m2.8m/s-48.1°C0%0hPa0V00:00:0000:00:0000:00:00
KE7DJD2026-09-06 00:14:1041.50891-115.1070283°5km/h23668m6.5m/s-48.6°C0%0hPa0V00:00:0000:00:0000:00:00
KE7DJD2026-09-06 00:13:5041.50851-115.1075433°4km/h23550m5.2m/s-48.9°C0%0hPa0V00:00:0000:00:0000:00:00
KE7DJD2026-09-06 00:13:2941.50766-115.1078545°24km/h23429m4.8m/s-48.6°C0%0hPa0V00:00:0000:00:0000:00:00
KE7DJD2026-09-06 00:13:0841.50704-115.10775323°9km/h23314m5.2m/s-48.0°C0%0hPa0V00:00:0000:00:0000:00:00
KE7DJD2026-09-06 00:12:2741.50619-115.10621264°15km/h23088m6.8m/s-47.5°C0%0hPa0V00:00:0000:00:0000:00:00
KE7DJD2026-09-06 00:12:0741.50657-115.10480235°40km/h22969m5.2m/s-47.1°C0%0hPa0V00:00:0000:00:0000:00:00
KE7DJD2026-09-06 00:11:4741.50661-115.10392290°16km/h22860m5.7m/s-47.4°C0%0hPa0V00:00:0000:00:0000:00:00
KE7DJD2026-09-06 00:11:2641.50628-115.10332309°11km/h22751m5.8m/s-47.5°C0%0hPa0V00:00:0000:00:0000:00:00
KE7DJD2026-09-06 00:11:0441.50588-115.10250258°20km/h22641m5.9m/s-47.5°C0%0hPa0V00:00:0000:00:0000:00:00
KE7DJD2026-09-06 00:10:4441.50594-115.10132287°20km/h22535m5.6m/s-47.9°C0%0hPa0V00:00:0000:00:0000:00:00
KE7DJD2026-09-06 00:10:2441.50601-115.100580km/h22428m5.1m/s-48.1°C0%0hPa0V00:00:0000:00:0000:00:00
KE7DJD2026-09-06 00:10:0341.50599-115.10019219°5km/h22328m4.5m/s-48.1°C0%0hPa0V00:00:0000:00:0000:00:00
KE7DJD2026-09-06 00:09:4341.50587-115.09978348°7km/h22224m4.8m/s-48.2°C0%0hPa0V00:00:0000:00:0000:00:00
KE7DJD2026-09-06 00:09:2241.50567-115.09897306°22km/h22125m3.7m/s-48.2°C0%0hPa0V00:00:0000:00:0000:00:00
KE7DJD2026-09-06 00:08:4141.50530-115.09606287°22km/h21914m6.3m/s-48.1°C0%0hPa0V00:00:0000:00:0000:00:00
KE7DJD2026-09-06 00:08:2141.50496-115.09482239°4km/h21802m4.3m/s-47.8°C0%0hPa0V00:00:0000:00:0000:00:00
KE7DJD2026-09-06 00:07:5941.50512-115.09451270°4km/h21693m5.8m/s-48.5°C0%0hPa0V00:00:0000:00:0000:00:00
KE7DJD2026-09-06 00:07:3841.50488-115.09399298°26km/h21584m4.7m/s-49.0°C0%0hPa0V00:00:0000:00:0000:00:00
KE7DJD2026-09-06 00:07:1841.50446-115.09260281°27km/h21475m5.8m/s-49.5°C0%0hPa0V00:00:0000:00:0000:00:00
KE7DJD2026-09-06 00:06:5741.50437-115.09066297°27km/h21361m7.2m/s-49.0°C0%0hPa0V00:00:0000:00:0000:00:00
KE7DJD2026-09-06 00:06:3641.50422-115.08938273°13km/h21256m6.4m/s-48.9°C0%0hPa0V00:00:0000:00:0000:00:00
KE7DJD2026-09-06 00:06:1641.50423-115.08836238°15km/h21142m6.7m/s-49.3°C0%0hPa0V00:00:0000:00:0000:00:00
KE7DJD2026-09-06 00:05:5541.50396-115.08795357°13km/h21030m5.4m/s-49.6°C0%0hPa0V00:00:0000:00:0000:00:00
KE7DJD2026-09-06 00:05:3541.50300-115.08788350°16km/h20921m6.3m/s-49.7°C0%0hPa0V00:00:0000:00:0000:00:00
KE7DJD2026-09-06 00:05:1441.50203-115.08745350°22km/h20817m5.3m/s-49.5°C0%0hPa0V00:00:0000:00:0000:00:00
KE7DJD2026-09-06 00:04:5441.50115-115.08652317°29km/h20708m3.4m/s-49.3°C0%0hPa0V00:00:0000:00:0000:00:00
KE7DJD2026-09-06 00:04:3341.50060-115.08542277°15km/h20600m5.3m/s-50.3°C0%0hPa0V00:00:0000:00:0000:00:00
KE7DJD2026-09-06 00:04:1241.50047-115.08478286°16km/h20493m5.2m/s-50.6°C0%0hPa0V00:00:0000:00:0000:00:00
KE7DJD2026-09-06 00:03:5241.50085-115.08449160°13km/h20388m5.3m/s-51.0°C0%0hPa0V00:00:0000:00:0000:00:00
KE7DJD2026-09-06 00:03:3141.50145-115.084420km/h20286m7.2m/s-51.4°C0%0hPa0V00:00:0000:00:0000:00:00
KE7DJD2026-09-06 00:03:1641.50129-115.084747km/h20181m5.1m/s-51.9°C0%0hPa0V00:00:0000:00:0000:00:00
KE7DJD2026-09-06 00:02:5941.50096-115.08493353°16km/h20082m5.3m/s-52.3°C0%0hPa0V00:00:0000:00:0000:00:00
KE7DJD2026-09-06 00:02:3341.50052-115.0852632°7km/h19977m5.6m/s-52.2°C0%0hPa0V00:00:0000:00:0000:00:00
KE7DJD2026-09-06 00:02:0941.49995-115.0854598°9km/h19871m3.3m/s-52.6°C0%0hPa0V00:00:0000:00:0000:00:00
KE7DJD2026-09-06 00:01:5441.49938-115.08552353°9km/h19773m6.0m/s-52.0°C0%0hPa0V00:00:0000:00:0000:00:00
KE7DJD2026-09-06 00:01:3341.49887-115.08526317°16km/h19669m5.5m/s-51.5°C0%0hPa0V00:00:0000:00:0000:00:00
KE7DJD2026-09-06 00:01:1041.49805-115.0846110°26km/h19562m5.1m/s-50.9°C0%0hPa0V00:00:0000:00:0000:00:00
KE7DJD2026-09-06 00:00:4841.49726-115.08429330°26km/h19463m6.0m/s-50.6°C0%0hPa0V00:00:0000:00:0000:00:00
KE7DJD2026-09-06 00:00:2741.49647-115.08380310°18km/h19355m6.2m/s-50.7°C0%0hPa0V00:00:0000:00:0000:00:00
KE7DJD2026-09-06 00:00:0941.49578-115.08301303°24km/h19249m5.3m/s-50.1°C0%0hPa0V00:00:0000:00:0000:00:00
KE7DJD2026-09-05 23:59:4641.49512-115.08220314°7km/h19139m4.4m/s-49.6°C0%0hPa0V00:00:0000:00:0000:00:00
KE7DJD2026-09-05 23:59:2541.49429-115.08164342°24km/h19031m6.1m/s-49.0°C0%0hPa0V00:00:0000:00:0000:00:00
KE7DJD2026-09-05 23:59:0341.49339-115.08144341°15km/h18921m6.2m/s-48.3°C0%0hPa0V00:00:0000:00:0000:00:00
KE7DJD2026-09-05 23:58:4341.49275-115.0822761°24km/h18812m5.4m/s-52.4°C0%0hPa0V00:00:0000:00:0000:00:00
KE7DJD2026-09-05 23:58:2241.49210-115.0838064°20km/h18706m5.9m/s-52.4°C0%0hPa0V00:00:0000:00:0000:00:00
KE7DJD2026-09-05 23:58:0141.49155-115.0852570°27km/h18605m6.0m/s-52.7°C0%0hPa0V00:00:0000:00:0000:00:00
KE7DJD2026-09-05 23:57:4141.49068-115.0867852°35km/h18497m6.0m/s-52.9°C0%0hPa0V00:00:0000:00:0000:00:00
KE7DJD2026-09-05 23:57:2041.48951-115.0881013°18km/h18406m5.8m/s-52.2°C0%0hPa0V00:00:0000:00:0000:00:00
KE7DJD2026-09-05 23:56:3841.48772-115.0898668°33km/h18181m8.2m/s-50.5°C0%0hPa0V00:00:0000:00:0000:00:00
KE7DJD2026-09-05 23:56:1841.48669-115.0911660°24km/h18054m6.5m/s-49.7°C0%0hPa0V00:00:0000:00:0000:00:00
KE7DJD2026-09-05 23:55:5841.48590-115.0936464°57km/h17946m4.5m/s-49.4°C0%0hPa0V00:00:0000:00:0000:00:00
KE7DJD2026-09-05 23:55:3641.48491-115.0965353°44km/h17846m5.9m/s-49.1°C0%0hPa0V00:00:0000:00:0000:00:00
KE7DJD2026-09-05 23:55:1541.48353-115.0992961°53km/h17742m6.5m/s-48.4°C0%0hPa0V00:00:0000:00:0000:00:00
KE7DJD2026-09-05 23:54:5541.48195-115.1021259°46km/h17639m2.9m/s-48.3°C0%0hPa0V00:00:0000:00:0000:00:00
KE7DJD2026-09-05 23:54:3441.47960-115.1050739°57km/h17531m4.8m/s-48.8°C0%0hPa0V00:00:0000:00:0000:00:00
KE7DJD2026-09-05 23:54:1241.47673-115.1076227°62km/h17426m4.3m/s-50.7°C0%0hPa0V00:00:0000:00:0000:00:00
KE7DJD2026-09-05 23:53:5241.47323-115.1101339°68km/h17325m4.9m/s-52.1°C0%0hPa0V00:00:0000:00:0000:00:00
KE7DJD2026-09-05 23:53:3141.46977-115.1126924°82km/h17233m3.9m/s-52.6°C0%0hPa0V00:00:0000:00:0000:00:00
KE7DJD2026-09-05 23:53:1041.46629-115.1147623°71km/h17147m4.5m/s-52.8°C0%0hPa0V00:00:0000:00:0000:00:00
KE7DJD2026-09-05 23:52:5041.46277-115.1160814°66km/h17061m4.2m/s-53.5°C0%0hPa0V00:00:0000:00:0000:00:00
KE7DJD2026-09-05 23:52:2941.45936-115.1169118°60km/h16966m3.1m/s-53.5°C0%0hPa0V00:00:0000:00:0000:00:00
KE7DJD2026-09-05 23:52:0841.45613-115.1173857km/h16876m3.3m/s-53.3°C0%0hPa0V00:00:0000:00:0000:00:00
KE7DJD2026-09-05 23:51:4841.45321-115.1183120°57km/h16767m6.0m/s-53.4°C0%0hPa0V00:00:0000:00:0000:00:00
KE7DJD2026-09-05 23:51:2741.45095-115.1197132°69km/h16666m5.9m/s-53.2°C0%0hPa0V00:00:0000:00:0000:00:00
KE7DJD2026-09-05 23:51:0741.44875-115.1216550°49km/h16542m5.0m/s-53.0°C0%0hPa0V00:00:0000:00:0000:00:00
KE7DJD2026-09-05 23:50:4541.44623-115.1242522°53km/h16399m8.7m/s-52.6°C0%0hPa0V00:00:0000:00:0000:00:00
KE7DJD2026-09-05 23:50:2441.44340-115.1275043°75km/h16277m5.7m/s-53.4°C0%0hPa0V00:00:0000:00:0000:00:00
KE7DJD2026-09-05 23:50:0341.44051-115.1307733°71km/h16178m5.7m/s-53.4°C0%0hPa0V00:00:0000:00:0000:00:00
KE7DJD2026-09-05 23:49:4341.43761-115.1338944°69km/h16079m4.2m/s-52.8°C0%0hPa0V00:00:0000:00:0000:00:00
KE7DJD2026-09-05 23:49:2241.43495-115.1371542°68km/h15988m3.8m/s-52.8°C0%0hPa0V00:00:0000:00:0000:00:00
KE7DJD2026-09-05 23:48:4241.42927-115.1442540°66km/h15799m4.2m/s-52.4°C0%0hPa0V00:00:0000:00:0000:00:00
KE7DJD2026-09-05 23:48:2141.42650-115.1476045°71km/h15704m4.5m/s-51.6°C0%0hPa0V00:00:0000:00:0000:00:00
KE7DJD2026-09-05 23:48:0041.42387-115.1512148°75km/h15614m4.8m/s-51.8°C0%0hPa0V00:00:0000:00:0000:00:00
KE7DJD2026-09-05 23:47:3941.42143-115.1547046°73km/h15527m5.1m/s-51.1°C0%0hPa0V00:00:0000:00:0000:00:00
KE7DJD2026-09-05 23:47:1941.41875-115.1583544°78km/h15436m5.2m/s-50.5°C0%0hPa0V00:00:0000:00:0000:00:00
KE7DJD2026-09-05 23:46:5941.41583-115.1619243°88km/h15349m3.6m/s-50.2°C0%0hPa0V00:00:0000:00:0000:00:00
KE7DJD2026-09-05 23:46:3741.41247-115.1655650°86km/h15254m3.7m/s-49.7°C0%0hPa0V00:00:0000:00:0000:00:00


GPX KML Map

© wettersonde.net (DO2JMG) - 2026  -  -